Station Historical Data
 
Daily Summary for October 18, 2017 Units:  Metric    English   Both
« Previous Day
Next Day »
Daily Weekly Monthly Yearly Custom
  Current: High: Low: Average:
Temperature: 20.8 °C 22.6 °C 10.4 °C 14.9 °C
Dew Point: 11.7 °C 13.7 °C 9.4 °C 11 °C
Humidity: 56 % 94 % 45 % 80 %
Wind Speed: 0.0 km/h 14.5 km/h 0.0 km/h 3.8 km/h
Wind Gust: 0.0 km/h 14.5 km/h - -
Wind:Calm - - SSW
Pressure: 1015.8 hPa 1020.9 hPa 1015.8 hPa -
Precipitation: 0.3 mm      
Historical Graphs
 
 
Tabular Data for October 18, 2017
Time Temperature Dew Point Pressure Wind Wind Speed Wind Gust Humidity Rainfall Rate (Hourly) solar Conditions
00:01 13.5 °C 11.9 °C 1020.9 hPa NNE 5.6 km/h 5.6 km/h 90 % 0.0 mm 0.0 W/m2 RA
00:06 13.4 °C 11.8 °C 1020.9 hPa North 3.7 km/h 3.7 km/h 90 % 0.0 mm 0.0 W/m2 RA
00:11 13.4 °C 11.8 °C 1020.9 hPa North 1.9 km/h 1.9 km/h 90 % 0.0 mm 0.0 W/m2 CLR
00:17 13.3 °C 11.7 °C 1020.9 hPa North 3.7 km/h 3.7 km/h 90 % 0.0 mm 0.0 W/m2 CLR
00:22 13.3 °C 11.7 °C 1020.9 hPa North 3.7 km/h 3.7 km/h 90 % 0.0 mm 0.0 W/m2 CLR
00:27 13.3 °C 11.7 °C 1020.9 hPa North 3.7 km/h 3.7 km/h 90 % 0.0 mm 0.0 W/m2 CLR
00:32 13.3 °C 11.7 °C 1020.9 hPa North 1.9 km/h 1.9 km/h 90 % 0.0 mm 0.0 W/m2 CLR
00:37 13.2 °C 11.6 °C 1020.9 hPa North 3.7 km/h 3.7 km/h 90 % 0.0 mm 0.0 W/m2 CLR
00:42 13.2 °C 11.6 °C 1020.5 hPa North 1.9 km/h 1.9 km/h 90 % 0.0 mm 0.0 W/m2 CLR
00:47 13.2 °C 11.6 °C 1020.5 hPa North 3.2 km/h 3.2 km/h 90 % 0.0 mm 0.0 W/m2 CLR
00:52 13.1 °C 11.5 °C 1020.5 hPa North 3.7 km/h 3.7 km/h 90 % 0.0 mm 0.0 W/m2 CLR
00:57 13.1 °C 11.4 °C 1020.5 hPa North 1.9 km/h 1.9 km/h 90 % 0.0 mm 0.0 W/m2 CLR
01:02 13.0 °C 11.4 °C 1020.5 hPa Calm     90 % 0.0 mm 0.0 W/m2 CLR
01:07 12.9 °C 11.5 °C 1020.5 hPa Calm     91 % 0.0 mm 0.0 W/m2 CLR
01:12 12.9 °C 11.4 °C 1020.5 hPa Calm     91 % 0.0 mm 0.0 W/m2 CLR
01:17 12.9 °C 11.4 °C 1020.5 hPa Calm     91 % 0.0 mm 0.0 W/m2 CLR
01:22 12.8 °C 11.4 °C 1020.5 hPa Calm     91 % 0.0 mm 0.0 W/m2 CLR
01:27 12.8 °C 11.3 °C 1020.5 hPa North 1.9 km/h 1.9 km/h 91 % 0.0 mm 0.0 W/m2 CLR
01:32 12.8 °C 11.3 °C 1020.5 hPa North 3.2 km/h 3.2 km/h 91 % 0.0 mm 0.0 W/m2 CLR
01:37 12.7 °C 11.3 °C 1020.5 hPa Calm     91 % 0.0 mm 0.0 W/m2 CLR
01:42 12.7 °C 11.3 °C 1020.5 hPa North 1.9 km/h   91 % 0.0 mm 0.0 W/m2 CLR
01:47 12.7 °C 11.2 °C 1020.5 hPa North 1.9 km/h 1.9 km/h 91 % 0.0 mm 0.0 W/m2 CLR
01:53 12.7 °C 11.2 °C 1020.5 hPa North 1.9 km/h 1.9 km/h 91 % 0.0 mm 0.0 W/m2 CLR
01:58 12.6 °C 11.3 °C 1020.5 hPa Calm     92 % 0.0 mm 0.0 W/m2 CLR
02:03 12.6 °C 11.1 °C 1020.5 hPa North 1.9 km/h 1.9 km/h 91 % 0.0 mm 0.0 W/m2 CLR
02:08 12.6 °C 11.3 °C 1020.5 hPa North 1.9 km/h 1.9 km/h 92 % 0.0 mm 0.0 W/m2 CLR
02:13 12.5 °C 11.2 °C 1020.5 hPa Calm     92 % 0.0 mm 0.0 W/m2 CLR
02:18 12.4 °C 11.2 °C 1020.5 hPa Calm     92 % 0.0 mm 0.0 W/m2 CLR
02:23 12.4 °C 11.1 °C 1020.5 hPa Calm     92 % 0.0 mm 0.0 W/m2 CLR
02:28 12.3 °C 11.1 °C 1020.5 hPa Calm     92 % 0.0 mm 0.0 W/m2 CLR
02:33 12.3 °C 11.1 °C 1020.5 hPa North 3.7 km/h 3.7 km/h 92 % 0.0 mm 0.0 W/m2 CLR
02:38 12.3 °C 11.0 °C 1020.2 hPa North 1.9 km/h 1.9 km/h 92 % 0.0 mm 0.0 W/m2 CLR
02:43 12.3 °C 11.0 °C 1020.5 hPa North 3.7 km/h 3.7 km/h 92 % 0.0 mm 0.0 W/m2 CLR
02:48 12.2 °C 10.9 °C 1020.2 hPa North 3.7 km/h 3.7 km/h 92 % 0.0 mm 0.0 W/m2 CLR
02:53 12.1 °C 10.8 °C 1020.2 hPa North 3.7 km/h 3.7 km/h 92 % 0.0 mm 0.0 W/m2 CLR
02:58 12.1 °C 10.8 °C 1020.2 hPa North 3.7 km/h 3.7 km/h 92 % 0.0 mm 0.0 W/m2 CLR
03:03 12.0 °C 10.7 °C 1020.2 hPa North 1.9 km/h 1.9 km/h 92 % 0.0 mm 0.0 W/m2 CLR
03:08 11.9 °C 10.7 °C 1020.2 hPa North 1.9 km/h 1.9 km/h 92 % 0.0 mm 0.0 W/m2 CLR
03:13 11.9 °C 10.7 °C 1020.2 hPa North 1.9 km/h 1.9 km/h 92 % 0.0 mm 0.0 W/m2 CLR
03:19 11.9 °C 10.7 °C 1019.9 hPa North 1.9 km/h 1.9 km/h 92 % 0.0 mm 0.0 W/m2 CLR
03:24 11.9 °C 10.8 °C 1019.9 hPa North 1.9 km/h 1.9 km/h 93 % 0.0 mm 0.0 W/m2 CLR
03:29 11.8 °C 10.7 °C 1020.2 hPa North 1.9 km/h 1.9 km/h 93 % 0.0 mm 0.0 W/m2 CLR
03:34 11.8 °C 10.7 °C 1020.2 hPa North 3.2 km/h 3.2 km/h 93 % 0.0 mm 0.0 W/m2 CLR
03:39 11.7 °C 10.6 °C 1019.9 hPa North 1.9 km/h 1.9 km/h 93 % 0.0 mm 0.0 W/m2 CLR
03:44 11.6 °C 10.5 °C 1019.9 hPa North 1.9 km/h 1.9 km/h 93 % 0.0 mm 0.0 W/m2 CLR
03:49 11.6 °C 10.5 °C 1019.9 hPa North 1.9 km/h 1.9 km/h 93 % 0.0 mm 0.0 W/m2 CLR
03:54 11.6 °C 10.4 °C 1019.9 hPa North 1.9 km/h 1.9 km/h 93 % 0.0 mm 0.0 W/m2 CLR
03:59 11.5 °C 10.4 °C 1019.5 hPa North 1.9 km/h 1.9 km/h 93 % 0.0 mm 0.0 W/m2 CLR
04:04 11.4 °C 10.3 °C 1019.9 hPa Calm     93 % 0.0 mm 0.0 W/m2 CLR
04:09 11.4 °C 10.3 °C 1019.5 hPa Calm     93 % 0.0 mm 0.0 W/m2 CLR
04:14 11.4 °C 10.3 °C 1019.5 hPa Calm     93 % 0.0 mm 0.0 W/m2 CLR
04:19 11.4 °C 10.3 °C 1019.5 hPa Calm     93 % 0.0 mm 0.0 W/m2 CLR
04:24 11.4 °C 10.3 °C 1019.5 hPa Calm     93 % 0.0 mm 0.0 W/m2 CLR
04:29 11.3 °C 10.2 °C 1019.5 hPa Calm     93 % 0.0 mm 0.0 W/m2 CLR
04:34 11.3 °C 10.2 °C 1019.5 hPa Calm     93 % 0.0 mm 0.0 W/m2 CLR
04:40 11.3 °C 10.2 °C 1019.5 hPa Calm     93 % 0.0 mm 0.0 W/m2 CLR
04:45 11.2 °C 10.1 °C 1019.5 hPa Calm     93 % 0.0 mm 0.0 W/m2 CLR
04:50 11.2 °C 10.1 °C 1019.5 hPa Calm     93 % 0.0 mm 0.0 W/m2 CLR
04:55 11.1 °C 10.0 °C 1019.5 hPa Calm     93 % 0.0 mm 0.0 W/m2 CLR
05:00 11.1 °C 10.2 °C 1019.5 hPa Calm     94 % 0.0 mm 0.0 W/m2 CLR
05:05 11.1 °C 10.0 °C 1019.5 hPa Calm     93 % 0.0 mm 0.0 W/m2 CLR
05:10 11.1 °C 9.9 °C 1019.5 hPa Calm     93 % 0.0 mm 0.0 W/m2 CLR
05:22 10.9 °C 9.8 °C 1019.2 hPa Calm     93 % 0.0 mm 0.0 W/m2 CLR
05:27 10.8 °C 9.7 °C 1019.2 hPa North 1.9 km/h 1.9 km/h 93 % 0.0 mm 0.0 W/m2 CLR
05:30 10.8 °C 9.7 °C 1019.2 hPa North 3.2 km/h 3.2 km/h 93 % 0.0 mm 0.0 W/m2 CLR
05:33 10.8 °C 9.7 °C 1019.2 hPa North 1.9 km/h 1.9 km/h 93 % 0.0 mm 0.0 W/m2 CLR
05:38 10.7 °C 9.6 °C 1019.2 hPa West 5.6 km/h 5.6 km/h 93 % 0.0 mm 0.0 W/m2 CLR
05:39 10.7 °C 9.6 °C 1019.2 hPa West 5.6 km/h 5.6 km/h 93 % 0.0 mm 0.0 W/m2 CLR
05:44 10.6 °C 9.5 °C 1019.2 hPa SW 5.6 km/h 5.6 km/h 93 % 0.0 mm 0.0 W/m2 CLR
05:50 10.6 °C 9.5 °C 1019.2 hPa SW 1.6 km/h 4.8 km/h 93 % 0.0 mm 0.0 W/m2 CLR
05:55 10.6 °C 9.5 °C 1019.2 hPa SW 3.7 km/h 3.7 km/h 93 % 0.0 mm 0.0 W/m2 CLR
06:00 10.6 °C 9.6 °C 1019.2 hPa SW 1.9 km/h 1.9 km/h 94 % 0.0 mm 0.0 W/m2 CLR
06:04 10.6 °C 9.6 °C 1019.2 hPa Calm     94 % 0.0 mm 0.0 W/m2 CLR
06:09 10.5 °C 9.6 °C 1019.2 hPa SW 1.9 km/h   94 % 0.0 mm 0.0 W/m2 CLR
06:14 10.5 °C 9.6 °C 1019.2 hPa SW 1.9 km/h 1.9 km/h 94 % 0.0 mm 0.0 W/m2 CLR
06:19 10.4 °C 9.5 °C 1019.2 hPa SW 1.9 km/h 1.9 km/h 94 % 0.0 mm 0.0 W/m2 CLR
06:24 10.4 °C 9.5 °C 1019.2 hPa Calm     94 % 0.0 mm 0.0 W/m2 CLR
06:29 10.4 °C 9.5 °C 1019.2 hPa SW 1.9 km/h 1.9 km/h 94 % 0.0 mm 0.0 W/m2 CLR
06:34 10.4 °C 9.4 °C 1019.2 hPa WSW 3.7 km/h 3.7 km/h 94 % 0.0 mm 0.0 W/m2 CLR
06:39 10.4 °C 9.4 °C 1019.2 hPa West 5.6 km/h 5.6 km/h 94 % 0.0 mm 0.0 W/m2 CLR
06:44 10.4 °C 9.5 °C 1019.2 hPa West 6.4 km/h 6.4 km/h 94 % 0.0 mm 0.0 W/m2 CLR
06:49 10.4 °C 9.5 °C 1019.2 hPa West 3.7 km/h 3.7 km/h 94 % 0.3 mm 0.0 W/m2 RA
06:54 10.4 °C 9.5 °C 1019.2 hPa West 6.4 km/h 6.4 km/h 94 % 0.3 mm 0.0 W/m2 RA
06:59 10.5 °C 9.6 °C 1019.2 hPa West 5.6 km/h 5.6 km/h 94 % 0.3 mm 0.0 W/m2 CLR
07:04 10.5 °C 9.6 °C 1019.2 hPa West 6.4 km/h 6.4 km/h 94 % 0.3 mm 0.0 W/m2 CLR
07:09 10.5 °C 9.6 °C 1019.2 hPa WSW 5.6 km/h 5.6 km/h 94 % 0.3 mm 0.0 W/m2 CLR
07:14 10.6 °C 9.6 °C 1019.2 hPa West 5.6 km/h 5.6 km/h 94 % 0.3 mm 0.0 W/m2 CLR
07:20 10.6 °C 9.7 °C 1019.2 hPa West 1.9 km/h 1.9 km/h 94 % 0.3 mm 0.0 W/m2 CLR
07:25 10.6 °C 9.7 °C 1019.2 hPa West 1.6 km/h 3.2 km/h 94 % 0.0 mm 0.0 W/m2
07:30 10.6 °C 9.7 °C 1019.2 hPa West 1.6 km/h 3.2 km/h 94 % 0.0 mm 0.0 W/m2
07:35 10.6 °C 9.7 °C 1019.2 hPa WNW 1.6 km/h 4.8 km/h 94 % 0.0 mm 0.0 W/m2 OVC
07:40 10.6 °C 9.7 °C 1018.8 hPa WNW 1.6 km/h 3.2 km/h 94 % 0.0 mm 0.0 W/m2 OVC
07:45 10.6 °C 9.7 °C 1018.8 hPa NW 1.6 km/h 3.2 km/h 94 % 0.0 mm 5.0 W/m2 SCT
07:50 10.7 °C 9.7 °C 1018.8 hPa NW 1.6 km/h 3.2 km/h 94 % 0.0 mm 7.0 W/m2 BKN
07:55 10.7 °C 9.7 °C 1018.8 hPa Calm   3.2 km/h 94 % 0.0 mm 12.0 W/m2 BKN
08:00 10.7 °C 9.7 °C 1018.8 hPa Calm   1.6 km/h 94 % 0.0 mm 16.0 W/m2 BKN
08:05 10.6 °C 9.7 °C 1019.2 hPa Calm     94 % 0.0 mm 21.0 W/m2 BKN
08:10 10.6 °C 9.7 °C 1019.2 hPa Calm   1.6 km/h 94 % 0.0 mm 25.0 W/m2 BKN
08:15 10.7 °C 9.7 °C 1019.2 hPa Calm   1.6 km/h 94 % 0.0 mm 30.0 W/m2 BKN
08:20 10.7 °C 9.8 °C 1019.2 hPa WNW 1.6 km/h 3.2 km/h 94 % 0.0 mm 35.0 W/m2 BKN
08:25 10.8 °C 9.8 °C 1019.2 hPa WNW 1.6 km/h 3.2 km/h 94 % 0.0 mm 40.0 W/m2 BKN
08:30 10.8 °C 9.8 °C 1019.2 hPa Calm   1.6 km/h 94 % 0.0 mm 47.0 W/m2 BKN
08:35 10.8 °C 9.9 °C 1019.2 hPa Calm   1.6 km/h 94 % 0.0 mm 54.0 W/m2 BKN
08:40 10.8 °C 9.9 °C 1019.2 hPa Calm     94 % 0.0 mm 60.0 W/m2 BKN
08:45 10.9 °C 10.0 °C 1019.2 hPa Calm     94 % 0.0 mm 67.0 W/m2 BKN
08:50 11.0 °C 10.1 °C 1019.2 hPa Calm     94 % 0.0 mm 74.0 W/m2 BKN
08:55 11.1 °C 10.1 °C 1019.2 hPa Calm     94 % 0.0 mm 83.0 W/m2 SCT
09:00 11.2 °C 10.2 °C 1019.2 hPa Calm   1.6 km/h 94 % 0.0 mm 93.0 W/m2 SCT
09:05 11.2 °C 10.3 °C 1019.2 hPa West 1.6 km/h 4.8 km/h 94 % 0.0 mm 102.0 W/m2 SCT
09:10 11.2 °C 10.3 °C 1019.2 hPa WSW 3.2 km/h 6.4 km/h 94 % 0.0 mm 111.0 W/m2 SCT
09:15 11.2 °C 10.3 °C 1019.2 hPa SW 3.2 km/h 6.4 km/h 94 % 0.0 mm 120.0 W/m2 SCT
09:20 11.2 °C 10.3 °C 1019.2 hPa WSW 3.2 km/h 6.4 km/h 94 % 0.0 mm 128.0 W/m2 SCT
09:25 11.3 °C 10.4 °C 1019.2 hPa WSW 1.6 km/h 6.4 km/h 94 % 0.0 mm 137.0 W/m2 SCT
09:30 11.4 °C 10.5 °C 1019.2 hPa WSW 1.6 km/h 4.8 km/h 94 % 0.0 mm 148.0 W/m2 SCT
09:35 11.6 °C 10.7 °C 1019.5 hPa WSW 3.2 km/h 4.8 km/h 94 % 0.0 mm 158.0 W/m2 SCT
09:40 11.7 °C 10.8 °C 1019.2 hPa WSW 3.2 km/h 6.4 km/h 94 % 0.0 mm 167.0 W/m2 SCT
09:45 11.8 °C 10.7 °C 1019.2 hPa WSW 3.2 km/h 4.8 km/h 93 % 0.0 mm 181.0 W/m2 SCT
09:50 12.0 °C 10.9 °C 1019.2 hPa WSW 1.6 km/h 4.8 km/h 93 % 0.0 mm 186.0 W/m2 SCT
09:55 12.2 °C 11.1 °C 1019.2 hPa WSW 3.2 km/h 6.4 km/h 93 % 0.0 mm 195.0 W/m2 SCT
10:00 12.3 °C 11.2 °C 1019.2 hPa WSW 4.8 km/h 8.0 km/h 93 % 0.0 mm 202.0 W/m2 SCT
10:05 12.4 °C 11.3 °C 1019.2 hPa SW 1.6 km/h 8.0 km/h 93 % 0.0 mm 211.0 W/m2 SCT
10:10 12.7 °C 11.6 °C 1019.2 hPa SW 3.2 km/h 6.4 km/h 93 % 0.0 mm 218.0 W/m2 SCT
10:15 12.8 °C 11.7 °C 1019.2 hPa SW 3.2 km/h 6.4 km/h 93 % 0.0 mm 232.0 W/m2 SCT
10:20 12.9 °C 11.7 °C 1019.2 hPa WSW 4.8 km/h 8.0 km/h 92 % 0.0 mm 241.0 W/m2 SCT
10:25 13.1 °C 11.8 °C 1019.2 hPa WSW 3.2 km/h 8.0 km/h 92 % 0.0 mm 250.0 W/m2 SCT
10:30 13.1 °C 11.6 °C 1019.2 hPa WSW 4.8 km/h 9.7 km/h 91 % 0.0 mm 258.0 W/m2 SCT
10:35 13.1 °C 11.7 °C 1019.2 hPa WSW 1.6 km/h 8.0 km/h 91 % 0.0 mm 281.0 W/m2 SCT
10:40 13.2 °C 11.6 °C 1019.2 hPa WSW 4.8 km/h 8.0 km/h 90 % 0.0 mm 290.0 W/m2 SCT
10:45 13.3 °C 11.7 °C 1019.2 hPa WSW 1.6 km/h 8.0 km/h 90 % 0.0 mm 302.0 W/m2 SCT
10:50 13.5 °C 11.9 °C 1019.2 hPa WSW 1.6 km/h 6.4 km/h 90 % 0.0 mm 311.0 W/m2 FEW
10:55 13.7 °C 11.9 °C 1019.2 hPa West 3.2 km/h 6.4 km/h 89 % 0.0 mm 320.0 W/m2 FEW
11:00 13.9 °C 12.1 °C 1019.2 hPa WSW 1.6 km/h 4.8 km/h 89 % 0.0 mm 323.0 W/m2 FEW
11:05 14.2 °C 12.4 °C 1019.2 hPa SW 1.6 km/h 3.2 km/h 89 % 0.0 mm 332.0 W/m2 FEW
11:10 14.5 °C 12.3 °C 1018.8 hPa West 8.0 km/h 8.0 km/h 87 % 0.0 mm 345.0 W/m2 FEW
11:15 14.7 °C 12.6 °C 1018.8 hPa West 6.4 km/h 6.4 km/h 87 % 0.0 mm 353.0 W/m2 FEW
11:20 14.9 °C 12.6 °C 1018.8 hPa SW 8.0 km/h 8.0 km/h 86 % 0.0 mm 362.0 W/m2 FEW
11:25 15.1 °C 12.6 °C 1018.8 hPa WSW 6.4 km/h 6.4 km/h 85 % 0.0 mm 367.0 W/m2 FEW
11:30 15.2 °C 12.7 °C 1018.8 hPa South 7.4 km/h 7.4 km/h 85 % 0.0 mm 378.0 W/m2 FEW
11:35 15.4 °C 12.7 °C 1018.8 hPa South 5.6 km/h 5.6 km/h 84 % 0.0 mm 387.0 W/m2 FEW
11:40 15.7 °C 12.8 °C 1018.8 hPa SW 8.0 km/h 8.0 km/h 83 % 0.0 mm 396.0 W/m2 FEW
11:45 15.9 °C 12.8 °C 1018.8 hPa WSW 6.4 km/h 6.4 km/h 82 % 0.0 mm 394.0 W/m2 FEW
11:50 16.0 °C 12.9 °C 1018.8 hPa WSW 8.0 km/h 8.0 km/h 82 % 0.0 mm 394.0 W/m2 FEW
11:55 16.1 °C 12.8 °C 1018.8 hPa SW 11.3 km/h 11.3 km/h 81 % 0.0 mm 397.0 W/m2 FEW
12:01 16.2 °C 12.9 °C 1018.8 hPa SW 9.7 km/h 9.7 km/h 81 % 0.0 mm 396.0 W/m2 FEW
12:06 16.3 °C 12.8 °C 1018.8 hPa SW 11.3 km/h 11.3 km/h 80 % 0.0 mm 387.0 W/m2 FEW
12:11 16.4 °C 13.0 °C 1018.8 hPa SW 6.4 km/h 6.4 km/h 80 % 0.0 mm 385.0 W/m2 FEW
12:16 16.6 °C 12.9 °C 1018.8 hPa West 5.6 km/h 5.6 km/h 79 % 0.0 mm 385.0 W/m2 FEW
12:21 16.6 °C 12.8 °C 1018.8 hPa SW 9.3 km/h 9.3 km/h 78 % 0.0 mm 392.0 W/m2 FEW
12:26 16.6 °C 12.8 °C 1018.8 hPa SW 9.3 km/h 9.3 km/h 78 % 0.0 mm 396.0 W/m2 FEW
12:31 16.7 °C 13.0 °C 1018.5 hPa SSW 6.4 km/h 6.4 km/h 79 % 0.0 mm 411.0 W/m2 FEW
12:36 16.9 °C 13.1 °C 1018.5 hPa SSW 6.4 km/h 6.4 km/h 78 % 0.0 mm 434.0 W/m2 FEW
12:41 17.1 °C 13.1 °C 1018.5 hPa SW 8.0 km/h 8.0 km/h 77 % 0.0 mm 434.0 W/m2 FEW
12:46 17.3 °C 13.2 °C 1018.5 hPa WSW 5.6 km/h 5.6 km/h 77 % 0.0 mm 452.0 W/m2 FEW
12:51 17.4 °C 13.1 °C 1018.5 hPa West 5.6 km/h 5.6 km/h 76 % 0.0 mm 454.0 W/m2 FEW
12:56 17.6 °C 13.3 °C 1018.5 hPa SW 5.6 km/h 5.6 km/h 76 % 0.0 mm 457.0 W/m2 FEW
13:01 17.9 °C 13.2 °C 1018.5 hPa WSW 8.0 km/h 8.0 km/h 74 % 0.0 mm 469.0 W/m2 FEW
13:06 18.1 °C 13.3 °C 1018.2 hPa South 5.6 km/h 5.6 km/h 74 % 0.0 mm 485.0 W/m2 FEW
13:11 18.3 °C 13.6 °C 1018.2 hPa WNW 6.4 km/h 6.4 km/h 74 % 0.0 mm 478.0 W/m2 CLR
13:16 18.6 °C 13.6 °C 1018.2 hPa West 8.0 km/h 8.0 km/h 73 % 0.0 mm 482.0 W/m2 CLR
13:21 18.8 °C 13.6 °C 1018.2 hPa South 5.6 km/h 5.6 km/h 72 % 0.0 mm 475.0 W/m2 CLR
13:26 19.0 °C 13.4 °C 1017.8 hPa WSW 9.7 km/h 9.7 km/h 70 % 0.0 mm 455.0 W/m2 FEW
13:31 19.1 °C 13.5 °C 1017.8 hPa SW 8.0 km/h 8.0 km/h 70 % 0.0 mm 424.0 W/m2 FEW
13:37 19.4 °C 13.6 °C 1017.8 hPa SW 5.6 km/h 5.6 km/h 69 % 0.0 mm 415.0 W/m2 FEW
13:42 19.7 °C 13.7 °C 1017.8 hPa SW 4.8 km/h 4.8 km/h 68 % 0.0 mm 438.0 W/m2 FEW
13:47 19.8 °C 13.1 °C 1017.8 hPa NW 3.7 km/h 3.7 km/h 65 % 0.0 mm 476.0 W/m2 FEW
13:52 20.1 °C 12.8 °C 1017.8 hPa NW 7.4 km/h 7.4 km/h 63 % 0.0 mm 510.0 W/m2 CLR
13:57 20.0 °C 12.5 °C 1017.5 hPa WNW 5.6 km/h 5.6 km/h 62 % 0.0 mm 492.0 W/m2 CLR
14:02 20.1 °C 12.1 °C 1017.5 hPa SSW 11.1 km/h 11.1 km/h 60 % 0.0 mm 496.0 W/m2 CLR
14:07 20.2 °C 11.6 °C 1017.2 hPa WSW 12.9 km/h 12.9 km/h 58 % 0.0 mm 503.0 W/m2 CLR
14:12 20.2 °C 11.7 °C 1017.5 hPa WSW 9.7 km/h 9.7 km/h 58 % 0.0 mm 496.0 W/m2 CLR
14:17 20.3 °C 11.7 °C 1017.5 hPa SW 11.1 km/h 11.1 km/h 58 % 0.0 mm 501.0 W/m2 CLR
14:22 20.5 °C 11.9 °C 1017.2 hPa West 14.5 km/h 14.5 km/h 58 % 0.0 mm 476.0 W/m2 CLR
14:27 20.6 °C 11.7 °C 1017.2 hPa SW 11.3 km/h 11.3 km/h 57 % 0.0 mm 480.0 W/m2 CLR
14:32 20.6 °C 11.7 °C 1017.2 hPa WSW 8.0 km/h 8.0 km/h 57 % 0.0 mm 468.0 W/m2 CLR
14:37 20.6 °C 11.8 °C 1016.8 hPa WNW 8.0 km/h 8.0 km/h 57 % 0.0 mm 459.0 W/m2 CLR
14:42 20.6 °C 11.5 °C 1016.8 hPa West 9.7 km/h 9.7 km/h 56 % 0.0 mm 475.0 W/m2 CLR
14:47 20.6 °C 11.2 °C 1016.8 hPa North 8.0 km/h 8.0 km/h 55 % 0.0 mm 468.0 W/m2 CLR
14:52 20.7 °C 11.6 °C 1016.8 hPa WNW 6.4 km/h 6.4 km/h 56 % 0.0 mm 446.0 W/m2 CLR
14:57 20.7 °C 10.8 °C 1016.5 hPa WNW 9.7 km/h 9.7 km/h 53 % 0.0 mm 434.0 W/m2 CLR
15:02 20.8 °C 11.4 °C 1016.5 hPa NW 8.0 km/h 8.0 km/h 55 % 0.0 mm 432.0 W/m2 CLR
15:07 20.9 °C 11.5 °C 1016.5 hPa West 6.4 km/h 6.4 km/h 55 % 0.0 mm 434.0 W/m2 CLR
15:13 21.1 °C 11.4 °C 1016.5 hPa WNW 5.6 km/h 5.6 km/h 54 % 0.0 mm 415.0 W/m2 CLR
15:18 21.3 °C 11.1 °C 1016.1 hPa West 8.0 km/h 8.0 km/h 52 % 0.0 mm 387.0 W/m2 CLR
15:23 21.4 °C 11.2 °C 1016.1 hPa WSW 9.7 km/h 9.7 km/h 52 % 0.0 mm 387.0 W/m2 CLR
15:28 21.6 °C 11.0 °C 1016.1 hPa West 5.6 km/h 5.6 km/h 51 % 0.0 mm 392.0 W/m2 CLR
15:33 21.8 °C 10.9 °C 1016.1 hPa SW 9.3 km/h 9.3 km/h 50 % 0.0 mm 378.0 W/m2 CLR
15:38 21.9 °C 11.3 °C 1016.1 hPa NW 8.0 km/h 8.0 km/h 51 % 0.0 mm 373.0 W/m2 CLR
15:43 21.9 °C 11.0 °C 1016.1 hPa SW 6.4 km/h 6.4 km/h 50 % 0.0 mm 373.0 W/m2 CLR
15:48 22.0 °C 11.1 °C 1016.1 hPa SW 5.6 km/h 5.6 km/h 50 % 0.0 mm 362.0 W/m2 CLR
15:53 22.2 °C 9.7 °C 1016.1 hPa South 5.6 km/h 5.6 km/h 45 % 0.0 mm 353.0 W/m2 CLR
15:58 22.2 °C 9.7 °C 1016.1 hPa WSW 6.4 km/h 6.4 km/h 45 % 0.0 mm 341.0 W/m2 CLR
16:03 22.3 °C 10.2 °C 1016.1 hPa SW 8.0 km/h 8.0 km/h 46 % 0.0 mm 327.0 W/m2 CLR
16:08 22.4 °C 10.2 °C 1016.1 hPa WNW 3.7 km/h 3.7 km/h 46 % 0.0 mm 306.0 W/m2 CLR
16:13 22.4 °C 10.2 °C 1016.1 hPa SSW 5.6 km/h 5.6 km/h 46 % 0.0 mm 290.0 W/m2 CLR
16:18 22.4 °C 10.6 °C 1016.1 hPa NW 5.6 km/h 5.6 km/h 47 % 0.0 mm 285.0 W/m2 CLR
16:23 22.4 °C 10.2 °C 1016.1 hPa NW 6.4 km/h 6.4 km/h 46 % 0.0 mm 274.0 W/m2 CLR
16:28 22.4 °C 10.2 °C 1016.1 hPa NW 3.7 km/h 3.7 km/h 46 % 0.0 mm 264.0 W/m2 CLR
16:33 22.4 °C 10.2 °C 1015.8 hPa SSW 8.0 km/h 8.0 km/h 46 % 0.0 mm 250.0 W/m2 CLR
16:38 22.4 °C 10.2 °C 1015.8 hPa SW 5.6 km/h 5.6 km/h 46 % 0.0 mm 239.0 W/m2 CLR
16:43 22.4 °C 10.5 °C 1015.8 hPa SSW 6.4 km/h 6.4 km/h 47 % 0.0 mm 220.0 W/m2 CLR
16:49 22.4 °C 10.2 °C 1015.8 hPa SSW 3.2 km/h 3.2 km/h 46 % 0.0 mm 206.0 W/m2 CLR
16:54 22.5 °C 10.6 °C 1015.8 hPa WSW 5.6 km/h 5.6 km/h 47 % 0.0 mm 188.0 W/m2 CLR
16:59 22.6 °C 10.7 °C 1015.8 hPa SW 6.4 km/h 6.4 km/h 47 % 0.0 mm 171.0 W/m2 CLR
17:04 22.5 °C 10.6 °C 1015.8 hPa SW 5.6 km/h 5.6 km/h 47 % 0.0 mm 158.0 W/m2 CLR
17:09 22.3 °C 10.4 °C 1015.8 hPa WSW 5.6 km/h 5.6 km/h 47 % 0.0 mm 146.0 W/m2 CLR
17:14 22.2 °C 10.6 °C 1015.8 hPa West 5.6 km/h 5.6 km/h 48 % 0.0 mm 127.0 W/m2 CLR
17:19 22.1 °C 10.8 °C 1015.8 hPa WNW 3.7 km/h 3.7 km/h 49 % 0.0 mm 116.0 W/m2 CLR
17:24 21.9 °C 10.7 °C 1015.8 hPa WNW 5.6 km/h 5.6 km/h 49 % 0.0 mm 104.0 W/m2 CLR
17:29 21.8 °C 10.6 °C 1015.8 hPa WNW 1.9 km/h 1.9 km/h 49 % 0.0 mm 91.0 W/m2 CLR
17:34 21.7 °C 10.8 °C 1015.8 hPa WNW 1.9 km/h   50 % 0.0 mm 81.0 W/m2 CLR
17:39 21.7 °C 10.8 °C 1015.8 hPa WNW 1.9 km/h 1.9 km/h 50 % 0.0 mm 69.0 W/m2 CLR
17:44 21.7 °C 11.1 °C 1015.8 hPa WNW 1.9 km/h   51 % 0.0 mm 58.0 W/m2 CLR
17:49 21.6 °C 11.1 °C 1015.8 hPa West 5.6 km/h 5.6 km/h 51 % 0.0 mm 49.0 W/m2 CLR
17:54 21.6 °C 11.3 °C 1015.8 hPa Calm     52 % 0.0 mm 42.0 W/m2 CLR
17:59 21.4 °C 11.4 °C 1015.8 hPa West 5.6 km/h 5.6 km/h 53 % 0.0 mm 33.0 W/m2 CLR
18:04 21.3 °C 11.7 °C 1015.8 hPa West 3.7 km/h 3.7 km/h 54 % 0.0 mm 26.0 W/m2 CLR
18:09 21.2 °C 11.6 °C 1015.8 hPa West 1.9 km/h 1.9 km/h 54 % 0.0 mm 23.0 W/m2 CLR
18:15 21.1 °C 11.7 °C 1015.8 hPa Calm     55 % 0.0 mm 16.0 W/m2 CLR
18:20 20.9 °C 11.8 °C 1015.8 hPa Calm   1.6 km/h 56 % 0.0 mm 11.0 W/m2 CLR
18:25 20.8 °C 11.7 °C 1015.8 hPa Calm     56 % 0.0 mm 7.0 W/m2 OVC
Juneau County Weather
Compliments of Weather Underground - 3 mb